메인 페이지
METAR-TAF:

METAR-TAF

공항 :

아카풀코, 멕시코

위도: 16-46N, 경도: 099-45W, 고도: 5m

현재 날씨관측

예보는 55분 전, 03:48시(UTC)에 발표되었습니다.
북북서5kt
온도 25°C
습도 83%
기압 1013 hPa
시정: 8.0km
고도 30000ft 상공 구름 보통

METAR: MMAA 200348Z 34005KT 5SM SCT300 25/22 A2992 RMK 8/002 HZY SC

시각: 22:43 (04:43 UTC)

예보

예보는 5 시간 58분 전, 22:45시(UTC)에 발표되었습니다.
예보 대상 시간: 20일 00시부터 21일 06시까지 (UTC)
서남서10kt
시정: 10km
고도 30000ft 상공 구름 많음
전환 중
20일 05시부터 20일 06시까지 (UTC)
북북동5kt
20일 1900시부터 (UTC)
서남서10kt
시정: 10km
고도 25000ft 상공 구름 많음
전환 중
21일 03시부터 21일 04시까지 (UTC)
10kt

TAF: MMAA 192245Z 2000/2106 24010KT P6SM BKN300 TX30/2019Z TN22/2012Z BECMG 2005/2006 02005KT FM201900 24010KT P6SM BKN250 BECMG 2103/2104 27010KT

4,000개 이상의 공항 관측 자료 및 예보 (METAR 및 TAF 보고).

지도상에서 검색 가능한 기상관측소가 노란 점과 빨간 점으로 표시되어 있습니다.

기상관측소 명을 보려면 표시 위로 마우스를 이동하세요.

날씨 관측과 예보를 보려면 클릭하세요.

지도 변경 : 확대하려면 엑스 표시가 있는 녹색 버튼, 축소하려면 빼기 표시가 있는 녹색 버튼, 다음 페이지의 지도를 보려면 녹색 화살표를 클릭하세요.


METAR-TAF: